Have a Safe July 4th! 

Flight Track Log - Related Links

Times and Time Zones

All times are in EDT time to prevent confusion due to time zone crossing. See the EJA846 flight status page for this flight to view local times or setup timezone preferences in your user account.

Time Position Orientation Groundspeed Altitude Reporting Facility
EDT Latitude Longitude Course Direction KTS MPH feet Rate Location/Type
Sun 11:04:44 AM 28.2833 -81.4333 127° Southeast 156 180 500  Level Orlando TRACON
Sun 11:05:27 AM 28.2500 -81.4167 156° South 164 189 2,000 1,748 Climbing Orlando TRACON
Sun 11:06:27 AM 28.2167 -81.3833 139° Southeast 201 231 3,500 1,053 Climbing Orlando TRACON
Sun 11:07:21 AM 28.2000 -81.3167 106° East 192 221 4,000 263 Climbing Orlando TRACON
Sun 11:08:21 AM 28.1833 -81.2667 111° Southeast 189 217 4,000 1,500 Level Orlando TRACON
Sun 11:09:21 AM 28.1667 -81.2000 106° East 209 241 7,000 3,400 Climbing Orlando TRACON
Sun 11:10:00 AM 27.9960 -80.9940 127° Southeast  Level FlightAware Approximate
Sun 11:10:21 AM 28.1500 -81.1333 106° East 229 264 10,800  Level Orlando TRACON
Sun 11:11:51 AM 28.1306 -80.9956 99° East 302 348 12,000 480 Climbing Miami Center
Sun 11:12:51 AM 28.0850 -80.9044 120° Southeast 332 382 12,000  Level Miami Center
Sun 11:13:51 AM 28.0139 -80.8339 139° Southeast 332 382 12,000  Level Miami Center
Sun 11:14:51 AM 27.9428 -80.7678 141° Southeast 339 390 12,000 -600 Level Miami Center
Sun 11:15:51 AM 27.8672 -80.7017 142° Southeast 344 396 10,800 -1,350 Descending Miami Center
Sun 11:16:51 AM 27.8061 -80.6433 140° Southeast 315 362 9,300 -1,500 Descending Miami Center
Sun 11:17:51 AM 27.7619 -80.5856 131° Southeast 276 318 7,800 -1,450 Descending Miami Center
Sun 11:18:51 AM 27.7153 -80.5231 130° Southeast 259 298 6,400 -1,400 Descending Miami Center
Sun 11:19:51 AM 27.6650 -80.4536 129° Southeast 259 298 5,000 -700 Descending Miami Center
Sun 11:20:51 AM 27.6097 -80.4025 141° Southeast 259 298 5,000  Level Miami Center
Sun 11:21:51 AM 27.5503 -80.3586 147° Southeast 265 305 5,000  Level Miami Center
Sun 11:22:51 AM 27.4950 -80.3169 146° Southeast 265 305 5,000  Level Miami Center
Sun 11:23:51 AM 27.4356 -80.2708 145° Southeast 265 305 5,000 -500 Level Miami Center
Sun 11:24:51 AM 27.3700 -80.2222 147° Southeast 260 299 4,000 -500 Descending Miami Center
Sun 11:25:51 AM 27.3167 -80.1786 144° Southeast 254 292 4,000 -350 Level Miami Center
Sun 11:26:51 AM 27.2589 -80.1442 152° Southeast 244 281 3,300 -1,250 Descending Miami Center
Sun 11:27:51 AM 27.2261 -80.2039 238° Southwest 170 196 1,500 -900 Descending Miami Center
Sun 11:28:51 AM 27.2311 -80.2625 275° West 140 161 1,500 -300 Level Miami Center
Sun 11:29:51 AM 27.2078 -80.2806 215° Southwest 108 124 900 -500 Descending Miami Center
Sun 11:30:51 AM 27.1894 -80.2542 128° Southeast 68 78 500 -200 Descending Miami Center
Sun 11:31:51 AM 27.1728 -80.2561 186° South 68 78 500  Level Miami Center

Login

Don't have an account? Register now (free) for customized features, flight alerts, and more!